Time;durP1;ratioP1;P1;durP2;ratioP2;P2;SDS_P1;SDS_P2;PMS_P1;PMS_P2;Temp;Humidity;BMP_temperature;BMP_pressure;BME280_temperature;BME280_humidity;BME280_pressure;Samples;Min_cycle;Max_cycle;Signal;HPM_P1;HPM_P2
2021/11/01 00:00:37;;;;;;;;;;;;;;;;;;5101189;28;19923;-87
2021/11/01 00:03:02;;;;;;;;;;;;;;;;;;5098909;28;19912;-87
2021/11/01 00:05:27;;;;;;;;;;;;;;;;;;5099032;28;19934;-87
2021/11/01 00:07:53;;;;;;;;;;;;;;;;;;5098411;28;19966;-87
2021/11/01 00:10:19;;;;;;;;;;;;;;;;;;5099335;28;20398;-87
2021/11/01 00:12:45;;;;;;;;;;;;;;;;;;5098612;28;19912;-88
2021/11/01 00:15:10;;;;;;;;;;;;;;;;;;5097501;28;19919;-87
2021/11/01 00:17:36;;;;;;;;;;;;;;;;;;5097632;28;19923;-87
2021/11/01 00:20:04;;;;;;;;;;;;;;;;;;5098580;28;19912;-87
2021/11/01 00:22:29;;;;;;;;;;;;;;;;;;5098722;28;19912;-87
2021/11/01 00:24:54;;;;;;;;;;;;;;;;;;5098818;28;19922;-86
2021/11/01 00:27:19;;;;;;;;;;;;;;;;;;5097613;28;19916;-86
2021/11/01 00:29:45;;;;;;;;;;;;;;;;;;5097243;28;20376;-87
2021/11/01 00:32:10;;;;;;;;;;;;;;;;;;5097398;28;19930;-87
2021/11/01 00:34:38;;;;;;;;;;;;;;;;;;5097481;28;19912;-85
2021/11/01 00:37:04;;;;;;;;;;;;;;;;;;5116050;28;19904;-85
2021/11/01 00:39:29;;;;;;;;;;;;;;;;;;5111115;28;19912;-86
2021/11/01 00:41:54;;;;;;;;;;;;;;;;;;5118974;28;19904;-88
2021/11/01 00:44:20;;;;;;;;;;;;;;;;;;5119018;28;19918;-87
2021/11/01 00:46:45;;;;;;;;;;;;;;;;;;5118879;28;19923;-86
2021/11/01 00:49:13;;;;;;;;;;;;;;;;;;5119406;28;19942;-88
2021/11/01 00:51:41;;;;;;;;;;;;;;;;;;5119071;28;19934;-87
2021/11/01 00:54:08;;;;;;;;;;;;;;;;;;5118837;28;19910;-87
2021/11/01 00:56:34;;;;;;;;;;;;;;;;;;5119857;28;19904;-87
2021/11/01 00:58:59;;;;;;;;;;;;;;;;;;5119534;28;19925;-87
2021/11/01 01:01:24;;;;;;;;;;;;;;;;;;5110423;28;19896;-87
2021/11/01 01:03:50;;;;;;;;;;;;;;;;;;5119477;28;19912;-88
2021/11/01 01:06:16;;;;;;;;;;;;;;;;;;5119321;28;19918;-89
2021/11/01 01:08:41;;;;;;;;;;;;;;;;;;5119244;28;19932;-88
2021/11/01 01:11:06;;;;;;;;;;;;;;;;;;5115575;28;19904;-87
2021/11/01 01:13:36;;;;;;;;;;;;;;;;;;5119611;28;19908;-87
2021/11/01 01:16:23;;;;;;;;;;;;;;;;;;5118712;28;19928;-87
2021/11/01 01:18:52;;;;;;;;;;;;;;;;;;5119287;28;19920;-87
2021/11/01 01:24:03;;;;;;;;;;;;;;;;;;5119353;28;19935;-86
2021/11/01 01:26:28;;;;;;;;;;;;;;;;;;5118552;28;19920;-86
2021/11/01 01:28:54;;;;;;;;;;;;;;;;;;5114284;28;19942;-87
2021/11/01 01:31:19;;;;;;;;;;;;;;;;;;5110828;28;19916;-87
2021/11/01 01:33:48;;;;;;;;;;;;;;;;;;5106867;28;20022;-87
2021/11/01 01:36:13;;;;;;;;;;;;;;;;;;5107345;28;19912;-88
2021/11/01 01:38:39;;;;;;;;;;;;;;;;;;5108312;28;19916;-87
2021/11/01 01:41:14;;;;;;;;;;;;;;;;;;5108861;28;19938;-88
2021/11/01 01:43:43;;;;;;;;;;;;;;;;;;5105828;28;19912;-86
2021/11/01 01:46:08;;;;;;;;;;;;;;;;;;5098359;28;19919;-88
2021/11/01 01:48:33;;;;;;;;;;;;;;;;;;5098390;28;19912;-87
2021/11/01 01:50:59;;;;;;;;;;;;;;;;;;5097175;28;19930;-86
2021/11/01 01:53:24;;;;;;;;;;;;;;;;;;5099455;28;19912;-88
2021/11/01 01:55:50;;;;;;;;;;;;;;;;;;5098140;28;19912;-88
2021/11/01 01:58:16;;;;;;;;;;;;;;;;;;5101296;28;19924;-89
2021/11/01 02:01:01;;;;;;;;;;;;;;;;;;5101093;28;19912;-86
2021/11/01 02:03:27;;;;;;;;;;;;;;;;;;5102014;28;19979;-86
2021/11/01 02:06:05;;;;;;;;;;;;;;;;;;5102129;28;20346;-87
2021/11/01 02:08:33;;;;;;;;;;;;;;;;;;5101418;28;19916;-87
2021/11/01 02:11:02;;;;;;;;;;;;;;;;;;5100764;28;19925;-87
2021/11/01 02:13:29;;;;;;;;;;;;;;;;;;5101928;28;19913;-87
2021/11/01 02:15:58;;;;;;;;;;;;;;;;;;5101832;28;20219;-86
2021/11/01 02:18:25;;;;;;;;;;;;;;;;;;5102251;28;19916;-87
2021/11/01 02:20:56;;;;;;;;;;;;;;;;;;5101973;28;19965;-87
2021/11/01 02:23:24;;;;;;;;;;;;;;;;;;5102099;28;19920;-87
2021/11/01 02:25:53;;;;;;;;;;;;;;;;;;5101614;28;19931;-87
2021/11/01 02:28:20;;;;;;;;;;;;;;;;;;5100917;28;20341;-88
2021/11/01 02:30:45;;;;;;;;;;;;;;;;;;5102008;28;19912;-88
2021/11/01 02:33:12;;;;;;;;;;;;;;;;;;5101308;28;19970;-87
2021/11/01 02:35:38;;;;;;;;;;;;;;;;;;5100396;28;19916;-88
2021/11/01 02:38:05;;;;;;;;;;;;;;;;;;5100204;28;20230;-86
2021/11/01 02:40:31;;;;;;;;;;;;;;;;;;5100787;28;20002;-87
2021/11/01 02:42:57;;;;;;;;;;;;;;;;;;5100656;28;19923;-88
2021/11/01 02:45:22;;;;;;;;;;;;;;;;;;5100062;28;19912;-88
2021/11/01 02:47:48;;;;;;;;;;;;;;;;;;5101757;28;20357;-87
2021/11/01 02:50:14;;;;;;;;;;;;;;;;;;5100369;28;19920;-88
2021/11/01 02:52:40;;;;;;;;;;;;;;;;;;5099700;28;19920;-88
2021/11/01 02:55:06;;;;;;;;;;;;;;;;;;5101602;28;19918;-87
2021/11/01 02:57:32;;;;;;;;;;;;;;;;;;5112610;28;19937;-85
2021/11/01 02:59:57;;;;;;;;;;;;;;;;;;5120446;28;19900;-87
2021/11/01 03:02:23;;;;;;;;;;;;;;;;;;5118872;28;19912;-88
2021/11/01 03:04:49;;;;;;;;;;;;;;;;;;5101306;28;19989;-87
2021/11/01 03:07:14;;;;;;;;;;;;;;;;;;5100066;28;19911;-88
2021/11/01 03:09:41;;;;;;;;;;;;;;;;;;5099583;28;19919;-88
2021/11/01 03:12:08;;;;;;;;;;;;;;;;;;5106606;28;19912;-88
2021/11/01 03:14:45;;;;;;;;;;;;;;;;;;5111184;28;20015;-88
2021/11/01 03:17:12;;;;;;;;;;;;;;;;;;5094783;28;19917;-88
2021/11/01 03:19:40;;;;;;;;;;;;;;;;;;5111513;28;19927;-88
2021/11/01 03:22:06;;;;;;;;;;;;;;;;;;5109567;28;19945;-88
2021/11/01 03:24:37;;;;;;;;;;;;;;;;;;5110004;28;19943;-87
2021/11/01 03:27:06;;;;;;;;;;;;;;;;;;5106756;28;19912;-88
2021/11/01 03:29:32;;;;;;;;;;;;;;;;;;5106094;28;19913;-88
2021/11/01 03:31:58;;;;;;;;;;;;;;;;;;5098535;28;19924;-88
2021/11/01 03:34:24;;;;;;;;;;;;;;;;;;5097975;28;20013;-88
2021/11/01 03:36:53;;;;;;;;;;;;;;;;;;5099722;28;20328;-88
2021/11/01 03:39:18;;;;;;;;;;;;;;;;;;5098888;28;19916;-87
2021/11/01 03:41:44;;;;;;;;;;;;;;;;;;5098074;28;19912;-87
2021/11/01 03:44:16;;;;;;;;;;;;;;;;;;5098564;28;19912;-87
2021/11/01 03:46:49;;;;;;;;;;;;;;;;;;5098814;28;20234;-88
2021/11/01 03:49:15;;;;;;;;;;;;;;;;;;5098641;28;20238;-88
2021/11/01 03:52:23;;;;;;;;;;;;;;;;;;5094714;27;20047;-87
2021/11/01 03:54:50;;;;;;;;;;;;;;;;;;5094700;28;20319;-87
2021/11/01 03:57:16;;;;;;;;;;;;;;;;;;5094513;28;19913;-87
2021/11/01 03:59:42;;;;;;;;;;;;;;;;;;5093439;28;19923;-88
2021/11/01 04:02:12;;;;;;;;;;;;;;;;;;5093325;28;19978;-88
2021/11/01 04:04:38;;;;;;;;;;;;;;;;;;5094409;28;19923;-87
2021/11/01 04:07:03;;;;;;;;;;;;;;;;;;5095176;28;19912;-88
2021/11/01 04:09:28;;;;;;;;;;;;;;;;;;5094086;28;19913;-88
2021/11/01 04:11:55;;;;;;;;;;;;;;;;;;5094440;28;19924;-88
2021/11/01 04:14:24;;;;;;;;;;;;;;;;;;5093784;28;20258;-88
2021/11/01 04:16:55;;;;;;;;;;;;;;;;;;5094375;28;19912;-88
2021/11/01 04:19:34;;;;;;;;;;;;;;;;;;5094780;28;19912;-87
2021/11/01 04:21:59;;;;;;;;;;;;;;;;;;5094672;28;20311;-88
2021/11/01 04:24:28;;;;;;;;;;;;;;;;;;5094204;28;19912;-87
2021/11/01 04:26:53;;;;;;;;;;;;;;;;;;5094251;28;19918;-88
2021/11/01 04:29:19;;;;;;;;;;;;;;;;;;5092942;28;19959;-88
2021/11/01 04:31:50;;;;;;;;;;;;;;;;;;5093217;28;19939;-88
2021/11/01 04:34:31;;;;;;;;;;;;;;;;;;5093946;28;19912;-89
2021/11/01 04:36:57;;;;;;;;;;;;;;;;;;5094876;28;19999;-86
2021/11/01 04:40:30;;;;;;;;;;;;;;;;;;5097453;28;19912;-88
2021/11/01 04:53:16;;;;;;;;;;;;;;;;;;5093811;28;19922;-88
2021/11/01 04:55:42;;;;;;;;;;;;;;;;;;5092201;28;19912;-88
2021/11/01 04:58:08;;;;;;;;;;;;;;;;;;5093202;28;19920;-88
2021/11/01 05:00:34;;;;;;;;;;;;;;;;;;5092292;28;20395;-88
2021/11/01 05:03:12;;;;;;;;;;;;;;;;;;5082362;28;19912;-89
2021/11/01 05:05:38;;;;;;;;;;;;;;;;;;5079142;28;20318;-85
2021/11/01 05:08:04;;;;;;;;;;;;;;;;;;5079194;28;19923;-85
2021/11/01 05:12:57;;;;;;;;;;;;;;;;;;5078463;28;19924;-84
2021/11/01 05:15:29;;;;;;;;;;;;;;;;;;5078002;28;20266;-84
2021/11/01 05:18:15;;;;;;;;;;;;;;;;;;5077590;28;20293;-83
2021/11/01 05:21:09;;;;;;;;;;;;;;;;;;5077890;28;20372;-84
2021/11/01 05:26:00;;;;;;;;;;;;;;;;;;5079576;28;19913;-83
2021/11/01 05:31:13;;;;;;;;;;;;;;;;;;5082275;28;19929;-82
2021/11/01 05:36:22;;;;;;;;;;;;;;;;;;5086177;28;19970;-83
2021/11/01 05:38:49;;;;;;;;;;;;;;;;;;5080814;28;19920;-83
2021/11/01 05:41:14;;;;;;;;;;;;;;;;;;5080430;28;19913;-83
2021/11/01 05:43:40;;;;;;;;;;;;;;;;;;5080616;28;19920;-82
2021/11/01 05:46:05;;;;;;;;;;;;;;;;;;5111504;28;19919;-82
2021/11/01 05:48:30;;;;;;;;;;;;;;;;;;5078936;28;19912;-83
2021/11/01 05:50:56;;;;;;;;;;;;;;;;;;5079132;28;19920;-83
2021/11/01 05:53:23;;;;;;;;;;;;;;;;;;5079453;28;20342;-83
2021/11/01 05:58:44;;;;;;;;;;;;;;;;;;5069909;28;19912;-84
2021/11/01 06:01:34;;;;;;;;;;;;;;;;;;5089246;28;20334;-83
2021/11/01 06:04:04;;;;;;;;;;;;;;;;;;5087368;28;19934;-84
2021/11/01 06:09:16;;;;;;;;;;;;;;;;;;5086353;28;19923;-81
2021/11/01 06:14:26;;;;;;;;;;;;;;;;;;5088877;28;19954;-82
2021/11/01 06:16:51;;;;;;;;;;;;;;;;;;5090247;28;20006;-82
2021/11/01 06:19:16;;;;;;;;;;;;;;;;;;5088342;28;19913;-81
2021/11/01 06:21:43;;;;;;;;;;;;;;;;;;5082449;28;19912;-82
2021/11/01 06:24:25;;;;;;;;;;;;;;;;;;5079880;28;19916;-82
2021/11/01 06:26:51;;;;;;;;;;;;;;;;;;5077601;28;20069;-83
2021/11/01 06:29:19;;;;;;;;;;;;;;;;;;5077503;28;20320;-83
2021/11/01 06:31:48;;;;;;;;;;;;;;;;;;5077522;28;19939;-83
2021/11/01 06:58:47;;;;;;;;;;;;;;;;;;5075653;28;19913;-83
2021/11/01 08:17:23;;;;;;;;;;;;;;;;;;5095745;28;20238;-84
2021/11/01 08:28:16;;;;;;;;;;;;;;;;;;5076858;28;19919;-84
2021/11/01 08:39:20;;;;;;;;;;;;;;;;;;5078841;28;19924;-84
2021/11/01 08:44:52;;;;;;;;;;;;;;;;;;5080241;28;19912;-86
2021/11/01 09:23:24;;;;;;;;;;;;;;;;;;5056470;28;19943;-85
2021/11/01 09:25:56;;;;;;;;;;;;;;;;;;5056732;28;19912;-85
2021/11/01 09:28:29;;;;;;;;;;;;;;;;;;5071056;28;20255;-85
2021/11/01 09:41:18;;;;;;;;;;;;;;;;;;5079317;28;19912;-84
2021/11/01 09:43:45;;;;;;;;;;;;;;;;;;5079088;28;19923;-85
2021/11/01 09:46:10;;;;;;;;;;;;;;;;;;5078156;28;20023;-86
2021/11/01 09:48:39;;;;;;;;;;;;;;;;;;5078261;28;19962;-86
2021/11/01 09:51:04;;;;;;;;;;;;;;;;;;5078119;28;19920;-85
2021/11/01 09:53:39;;;;;;;;;;;;;;;;;;5077613;28;20235;-85
2021/11/01 10:01:15;;;;;;;;;;;;;;;;;;5078376;28;20379;-85
2021/11/01 10:03:40;;;;;;;;;;;;;;;;;;5076869;28;19912;-84
2021/11/01 10:06:07;;;;;;;;;;;;;;;;;;5077693;28;19920;-84
2021/11/01 10:08:33;;;;;;;;;;;;;;;;;;5077854;28;20411;-85
2021/11/01 10:10:59;;;;;;;;;;;;;;;;;;5077362;28;19918;-85
2021/11/01 10:13:25;;;;;;;;;;;;;;;;;;5078567;28;19920;-85
2021/11/01 10:18:43;;;;;;;;;;;;;;;;;;5078981;28;19923;-85
2021/11/01 10:21:08;;;;;;;;;;;;;;;;;;5088799;28;19922;-84
2021/11/01 10:23:34;;;;;;;;;;;;;;;;;;5076105;28;19976;-83
2021/11/01 10:26:06;;;;;;;;;;;;;;;;;;5076904;28;20388;-81
2021/11/01 10:28:32;;;;;;;;;;;;;;;;;;5076908;28;19912;-83
2021/11/01 10:31:06;;;;;;;;;;;;;;;;;;5076823;28;19916;-85
2021/11/01 10:33:37;;;;;;;;;;;;;;;;;;5076578;28;19913;-83
2021/11/01 10:36:02;;;;;;;;;;;;;;;;;;5076459;28;19923;-84
2021/11/01 10:38:35;;;;;;;;;;;;;;;;;;5076973;28;19913;-88
2021/11/01 11:14:03;;;;;;;;;;;;;;;;;;5097787;28;19912;-86
2021/11/01 11:19:19;;;;;;;;;;;;;;;;;;5076959;28;20319;-84
2021/11/01 11:24:44;;;;;;;;;;;;;;;;;;5076388;28;19924;-84
2021/11/01 11:27:26;;;;;;;;;;;;;;;;;;5076403;28;19960;-84
2021/11/01 11:30:23;;;;;;;;;;;;;;;;;;5076650;28;20007;-84
2021/11/01 11:38:44;;;;;;;;;;;;;;;;;;5090727;28;19943;-83
2021/11/01 11:47:01;;;;;;;;;;;;;;;;;;5083477;28;19977;-84
2021/11/01 11:49:38;;;;;;;;;;;;;;;;;;5088017;28;19913;-84
2021/11/01 11:52:11;;;;;;;;;;;;;;;;;;5084272;28;19963;-86
2021/11/01 11:54:53;;;;;;;;;;;;;;;;;;5077232;28;19962;-85
2021/11/01 11:57:18;;;;;;;;;;;;;;;;;;5076266;28;19919;-85
2021/11/01 11:59:46;;;;;;;;;;;;;;;;;;5074647;28;19912;-85
2021/11/01 12:02:11;;;;;;;;;;;;;;;;;;5074848;28;19935;-85
2021/11/01 12:04:44;;;;;;;;;;;;;;;;;;5075824;28;20350;-85
2021/11/01 12:07:13;;;;;;;;;;;;;;;;;;5075572;28;20304;-87
2021/11/01 12:09:51;;;;;;;;;;;;;;;;;;5076453;28;20235;-85
2021/11/01 12:17:16;;;;;;;;;;;;;;;;;;5080287;28;19939;-85
2021/11/01 12:19:41;;;;;;;;;;;;;;;;;;5079327;28;19912;-84
2021/11/01 12:22:11;;;;;;;;;;;;;;;;;;5079150;28;19962;-84
2021/11/01 12:24:37;;;;;;;;;;;;;;;;;;5094992;28;20377;-85
2021/11/01 12:27:06;;;;;;;;;;;;;;;;;;5078118;28;19923;-82
2021/11/01 12:29:32;;;;;;;;;;;;;;;;;;5079292;28;19979;-83
2021/11/01 12:32:01;;;;;;;;;;;;;;;;;;5077960;28;20318;-82
2021/11/01 12:34:27;;;;;;;;;;;;;;;;;;5078277;28;19920;-83
2021/11/01 12:39:38;;;;;;;;;;;;;;;;;;5079307;28;19970;-82
2021/11/01 12:58:44;;;;;;;;;;;;;;;;;;5079472;28;19928;-82
2021/11/01 13:01:11;;;;;;;;;;;;;;;;;;5079051;28;19994;-82
2021/11/01 13:03:37;;;;;;;;;;;;;;;;;;5078999;28;19974;-82
2021/11/01 13:06:15;;;;;;;;;;;;;;;;;;5077754;28;19920;-82
2021/11/01 13:08:52;;;;;;;;;;;;;;;;;;5077367;28;19919;-82
2021/11/01 13:11:31;;;;;;;;;;;;;;;;;;5077237;28;19939;-83
2021/11/01 13:14:40;;;;;;;;;;;;;;;;;;5077515;28;19956;-85
2021/11/01 13:19:46;;;;;;;;;;;;;;;;;;5079091;28;19923;-82
2021/11/01 13:22:18;;;;;;;;;;;;;;;;;;5078457;28;19916;-81
2021/11/01 13:35:45;;;;;;;;;;;;;;;;;;5078768;28;19973;-81
2021/11/01 13:38:12;;;;;;;;;;;;;;;;;;5078181;28;19923;-83
2021/11/01 13:40:39;;;;;;;;;;;;;;;;;;5077933;28;19937;-81
2021/11/01 13:43:04;;;;;;;;;;;;;;;;;;5078160;28;20014;-82
2021/11/01 13:45:29;;;;;;;;;;;;;;;;;;5078166;28;19943;-81
2021/11/01 13:47:58;;;;;;;;;;;;;;;;;;5077896;28;19912;-80
2021/11/01 13:50:25;;;;;;;;;;;;;;;;;;5076611;28;19919;-82
2021/11/01 13:53:18;;;;;;;;;;;;;;;;;;5077969;28;19916;-80
2021/11/01 13:55:49;;;;;;;;;;;;;;;;;;5077882;28;19943;-83
2021/11/01 13:58:32;;;;;;;;;;;;;;;;;;5077838;28;19912;-80
2021/11/01 14:10:55;;;;;;;;;;;;;;;;;;5077843;28;19923;-82
2021/11/01 14:12:28;;;;;;;;;;;;;;;;;;5077369;28;20023;-82
2021/11/01 14:35:51;;;;;;;;;;;;;;;;;;5077779;28;20387;-82
2021/11/01 14:55:40;;;;;;;;;;;;;;;;;;5079708;28;20061;-82
2021/11/01 15:23:45;;;;;;;;;;;;;;;;;;5083088;28;19912;-84
2021/11/01 15:34:28;;;;;;;;;;;;;;;;;;5085453;28;19923;-84
2021/11/01 16:17:28;;;;;;;;;;;;;;;;;;5076562;28;19985;-85
2021/11/01 16:19:54;;;;;;;;;;;;;;;;;;5076579;28;19913;-84
2021/11/01 16:22:20;;;;;;;;;;;;;;;;;;5074519;28;19912;-83
2021/11/01 16:24:47;;;;;;;;;;;;;;;;;;5074769;28;19966;-83
2021/11/01 16:27:15;;;;;;;;;;;;;;;;;;5076055;28;19912;-86
2021/11/01 16:29:47;;;;;;;;;;;;;;;;;;5075687;28;19963;-82
2021/11/01 16:32:17;;;;;;;;;;;;;;;;;;5076357;28;19939;-83
2021/11/01 16:34:48;;;;;;;;;;;;;;;;;;5075674;28;19928;-82
2021/11/01 16:40:00;;;;;;;;;;;;;;;;;;5075971;28;20019;-84
2021/11/01 16:42:30;;;;;;;;;;;;;;;;;;5075451;28;19913;-83
2021/11/01 16:45:08;;;;;;;;;;;;;;;;;;5075475;28;19924;-85
2021/11/01 16:47:34;;;;;;;;;;;;;;;;;;5075539;28;19939;-83
2021/11/01 16:50:00;;;;;;;;;;;;;;;;;;5075350;28;19916;-84
2021/11/01 16:52:26;;;;;;;;;;;;;;;;;;5074494;28;20389;-86
2021/11/01 16:54:57;;;;;;;;;;;;;;;;;;5074216;28;20273;-85
2021/11/01 16:57:34;;;;;;;;;;;;;;;;;;5074829;28;19913;-85
2021/11/01 17:05:20;;;;;;;;;;;;;;;;;;5078683;28;19913;-85
2021/11/01 17:11:05;;;;;;;;;;;;;;;;;;5079388;28;19977;-84
2021/11/01 17:24:05;;;;;;;;;;;;;;;;;;5079828;28;19916;-81
2021/11/01 17:35:27;;;;;;;;;;;;;;;;;;5074747;28;20038;-85
2021/11/01 18:43:33;;;;;;;;;;;;;;;;;;5079296;28;19927;-84
2021/11/01 18:46:15;;;;;;;;;;;;;;;;;;5077841;28;19912;-86
2021/11/01 18:51:30;;;;;;;;;;;;;;;;;;5093046;28;19931;-84
2021/11/01 18:54:02;;;;;;;;;;;;;;;;;;5091180;28;19912;-85
2021/11/01 18:56:34;;;;;;;;;;;;;;;;;;5078373;28;19919;-85
2021/11/01 18:59:01;;;;;;;;;;;;;;;;;;5077681;28;19935;-85
2021/11/01 19:01:27;;;;;;;;;;;;;;;;;;5076239;28;19912;-84
2021/11/01 19:03:55;;;;;;;;;;;;;;;;;;5076143;28;20258;-85
2021/11/01 19:06:31;;;;;;;;;;;;;;;;;;5075948;28;19923;-86
2021/11/01 20:11:46;;;;;;;;;;;;;;;;;;5079294;28;19916;-86
2021/11/01 21:25:51;;;;;;;;;;;;;;;;;;5079739;28;19924;-83
2021/11/01 21:28:16;;;;;;;;;;;;;;;;;;5079012;28;19924;-84
2021/11/01 21:30:42;;;;;;;;;;;;;;;;;;5079003;28;19916;-83
2021/11/01 21:33:09;;;;;;;;;;;;;;;;;;5077514;28;19920;-84
2021/11/01 21:35:42;;;;;;;;;;;;;;;;;;5079189;28;19924;-83
2021/11/01 21:38:07;;;;;;;;;;;;;;;;;;5079425;28;19913;-84
2021/11/01 21:40:32;;;;;;;;;;;;;;;;;;5077555;28;19938;-83
2021/11/01 21:42:58;;;;;;;;;;;;;;;;;;5080944;28;19924;-85
2021/11/01 21:45:23;;;;;;;;;;;;;;;;;;5077313;28;20247;-84
2021/11/01 21:47:48;;;;;;;;;;;;;;;;;;5079038;28;19942;-86
2021/11/01 21:50:15;;;;;;;;;;;;;;;;;;5078087;28;19923;-85
2021/11/01 21:52:43;;;;;;;;;;;;;;;;;;5078239;28;19920;-84
2021/11/01 21:55:09;;;;;;;;;;;;;;;;;;5078095;28;20299;-84
2021/11/01 21:57:42;;;;;;;;;;;;;;;;;;5077326;28;19924;-84
2021/11/01 22:16:43;;;;;;;;;;;;;;;;;;5078096;28;19941;-84
2021/11/01 22:24:28;;;;;;;;;;;;;;;;;;5077791;28;19923;-84
2021/11/01 22:31:58;;;;;;;;;;;;;;;;;;5077012;28;20231;-83
2021/11/01 22:58:50;;;;;;;;;;;;;;;;;;5082888;28;19913;-83
2021/11/01 23:04:01;;;;;;;;;;;;;;;;;;5076847;28;19912;-83
2021/11/01 23:06:54;;;;;;;;;;;;;;;;;;5076223;28;20049;-84
2021/11/01 23:33:44;;;;;;;;;;;;;;;;;;5077707;28;19942;-84
2021/11/01 23:36:11;;;;;;;;;;;;;;;;;;5077439;28;20015;-84
2021/11/01 23:38:36;;;;;;;;;;;;;;;;;;5076153;28;19912;-84
2021/11/01 23:41:01;;;;;;;;;;;;;;;;;;5076190;28;19923;-84
2021/11/01 23:43:27;;;;;;;;;;;;;;;;;;5077350;28;19959;-83
2021/11/01 23:45:52;;;;;;;;;;;;;;;;;;5077811;28;19917;-83
2021/11/01 23:48:19;;;;;;;;;;;;;;;;;;5077272;28;19917;-84
2021/11/01 23:50:45;;;;;;;;;;;;;;;;;;5075033;28;19920;-84
2021/11/01 23:53:17;;;;;;;;;;;;;;;;;;5074701;28;20301;-83
2021/11/01 23:55:43;;;;;;;;;;;;;;;;;;5075388;28;19983;-84
2021/11/01 23:58:08;;;;;;;;;;;;;;;;;;5075443;28;20003;-84
